createdAt,value
2018-12-21T00:02:51.283Z,9.27
2018-12-21T00:07:56.071Z,7.17
2018-12-21T00:13:01.138Z,8.03
2018-12-21T00:18:06.086Z,7.20
2018-12-21T00:23:10.879Z,8.47
2018-12-21T00:28:15.673Z,6.63
2018-12-21T00:33:26.070Z,7.17
2018-12-21T00:38:36.281Z,5.80
2018-12-21T00:43:48.301Z,7.63
2018-12-21T00:48:54.232Z,5.03
2018-12-21T00:53:58.975Z,4.77
2018-12-21T00:59:03.906Z,7.90
2018-12-21T01:04:08.816Z,7.53
2018-12-21T01:09:13.566Z,5.90
2018-12-21T01:14:18.574Z,6.50
2018-12-21T01:19:23.503Z,6.13
2018-12-21T01:24:28.312Z,5.23
2018-12-21T01:29:33.194Z,5.90
2018-12-21T01:34:37.981Z,7.00
2018-12-21T01:39:42.862Z,5.63
2018-12-21T01:44:47.844Z,6.97
2018-12-21T01:49:52.681Z,5.83
2018-12-21T01:54:57.465Z,6.13
2018-12-21T02:00:02.459Z,6.63
2018-12-21T02:05:07.425Z,5.60
2018-12-21T02:10:13.391Z,5.70
2018-12-21T02:15:18.151Z,5.50
2018-12-21T02:20:23.944Z,5.07
2018-12-21T02:25:28.735Z,4.07
2018-12-21T02:30:33.575Z,5.40
2018-12-21T02:35:38.391Z,4.47
2018-12-21T02:40:43.311Z,6.53
2018-12-21T02:45:48.219Z,6.30
2018-12-21T02:50:53.159Z,5.67
2018-12-21T02:55:58.376Z,5.67
2018-12-21T03:01:03.366Z,4.57
2018-12-21T03:06:08.312Z,5.10
2018-12-21T03:11:13.139Z,3.80
2018-12-21T03:16:17.962Z,4.10
2018-12-21T03:21:23.020Z,3.67
2018-12-21T03:26:27.865Z,3.57
2018-12-21T03:31:32.615Z,5.07
2018-12-21T03:36:37.628Z,4.20
2018-12-21T03:41:42.576Z,3.47
2018-12-21T03:46:47.542Z,4.47
2018-12-21T03:51:52.550Z,3.80
2018-12-21T03:56:57.507Z,3.17
2018-12-21T04:02:02.474Z,3.33
2018-12-21T04:07:07.322Z,3.80
2018-12-21T04:12:12.065Z,3.57
2018-12-21T04:17:16.859Z,3.63
2018-12-21T04:22:21.872Z,2.23
2018-12-21T04:27:26.657Z,2.97
2018-12-21T04:32:31.491Z,2.87
2018-12-21T04:37:36.313Z,3.50
2018-12-21T04:42:41.372Z,2.20
2018-12-21T04:47:46.311Z,1.97
2018-12-21T04:52:51.085Z,2.17
2018-12-21T04:57:55.919Z,2.27
2018-12-21T05:03:01.275Z,1.10
2018-12-21T05:08:06.048Z,2.27
2018-12-21T05:13:10.924Z,1.80
2018-12-21T05:18:15.793Z,1.43
2018-12-21T05:23:20.670Z,1.53
2018-12-21T05:28:25.658Z,1.33
2018-12-21T05:33:30.446Z,1.13
2018-12-21T05:38:35.263Z,1.10
2018-12-21T05:43:40.104Z,1.13
2018-12-21T05:48:45.203Z,0.77
2018-12-21T05:53:50.267Z,1.23
2018-12-21T05:58:55.219Z,1.07
2018-12-21T06:04:00.145Z,1.43
2018-12-21T06:09:07.619Z,0.70
2018-12-21T06:14:12.721Z,0.80
2018-12-21T06:19:17.658Z,0.77
2018-12-21T06:24:22.462Z,1.70
2018-12-21T06:29:27.410Z,1.60
2018-12-21T06:34:32.253Z,0.50
2018-12-21T06:39:36.997Z,0.80
2018-12-21T06:44:42.022Z,0.70
2018-12-21T06:49:46.869Z,0.97
2018-12-21T06:54:51.755Z,1.13
2018-12-21T06:59:56.520Z,0.77
2018-12-21T07:05:01.335Z,0.97
2018-12-21T07:10:07.824Z,1.43
2018-12-21T07:15:12.571Z,1.30
2018-12-21T07:20:17.449Z,1.87
2018-12-21T07:25:22.273Z,1.00
2018-12-21T07:30:28.877Z,0.60
2018-12-21T07:35:33.732Z,1.00
2018-12-21T07:40:38.983Z,0.90
2018-12-21T07:45:43.772Z,0.73
2018-12-21T07:50:48.566Z,0.97
2018-12-21T07:55:53.348Z,0.77
2018-12-21T08:00:58.300Z,0.63
2018-12-21T08:06:03.073Z,0.90
2018-12-21T08:11:07.845Z,0.67
2018-12-21T08:16:12.681Z,2.40
2018-12-21T08:21:17.773Z,1.37
2018-12-21T08:26:22.602Z,0.47
2018-12-21T08:31:27.536Z,1.50
2018-12-21T08:36:32.507Z,1.50
2018-12-21T08:41:37.440Z,0.53
2018-12-21T08:46:42.337Z,1.17
2018-12-21T08:51:47.297Z,1.33
2018-12-21T08:56:52.052Z,0.50
2018-12-21T09:01:56.903Z,0.60
2018-12-21T09:07:01.769Z,0.80
2018-12-21T09:12:06.556Z,1.60
2018-12-21T09:17:11.477Z,0.80
2018-12-21T09:22:16.481Z,1.30
2018-12-21T09:27:22.335Z,1.53
2018-12-21T09:32:27.145Z,1.60
2018-12-21T09:37:32.192Z,2.73
2018-12-21T09:42:36.998Z,3.03
2018-12-21T09:47:41.803Z,2.97
2018-12-21T09:52:47.115Z,5.00
2018-12-21T09:57:51.883Z,4.53
2018-12-21T10:02:56.916Z,4.80
2018-12-21T10:08:03.110Z,4.93
2018-12-21T10:13:08.647Z,7.30
2018-12-21T10:18:14.133Z,7.97
2018-12-21T10:23:18.920Z,8.40
2018-12-21T10:28:23.748Z,4.77
2018-12-21T10:33:29.649Z,9.40
2018-12-21T10:38:34.498Z,6.50
2018-12-21T10:43:39.300Z,7.90
2018-12-21T10:48:44.048Z,7.03
2018-12-21T10:53:48.807Z,9.47
2018-12-21T10:58:53.673Z,7.50
2018-12-21T11:03:58.510Z,8.37
2018-12-21T11:09:04.210Z,8.33
2018-12-21T11:14:09.042Z,8.80
2018-12-21T11:19:14.179Z,10.73
2018-12-21T11:24:18.967Z,10.53
2018-12-21T11:29:23.871Z,8.87
2018-12-21T11:34:28.827Z,10.93
2018-12-21T11:39:33.720Z,12.93
2018-12-21T11:44:38.466Z,9.57
2018-12-21T11:49:43.304Z,8.40
2018-12-21T11:54:48.260Z,9.97
2018-12-21T11:59:53.070Z,12.13
2018-12-21T12:04:57.870Z,13.40
2018-12-21T12:10:02.650Z,11.07
2018-12-21T12:15:08.261Z,11.77
2018-12-21T12:20:13.157Z,11.67
2018-12-21T12:25:18.296Z,14.03
2018-12-21T12:30:23.159Z,13.00
2018-12-21T12:35:27.948Z,13.10
2018-12-21T12:40:32.717Z,15.17
2018-12-21T12:45:37.606Z,11.67
2018-12-21T12:50:42.367Z,15.50
2018-12-21T12:55:47.226Z,15.70
2018-12-21T13:00:52.094Z,13.97
2018-12-21T13:05:56.892Z,16.07
2018-12-21T13:11:01.799Z,12.63
2018-12-21T13:16:06.573Z,17.23
2018-12-21T13:21:11.432Z,18.20
2018-12-21T13:26:16.193Z,19.00
2018-12-21T13:31:21.013Z,21.77
2018-12-21T13:36:25.797Z,17.37
2018-12-21T13:41:30.629Z,19.87
2018-12-21T13:46:35.498Z,18.37
2018-12-21T13:51:40.354Z,24.63
2018-12-21T13:56:45.164Z,20.43
2018-12-21T14:01:49.923Z,25.13
2018-12-21T14:06:54.770Z,21.30
2018-12-21T14:11:59.564Z,27.03
2018-12-21T14:17:04.406Z,19.80
2018-12-21T14:22:09.194Z,20.33
2018-12-21T14:27:14.001Z,20.57
2018-12-21T14:32:18.899Z,22.97
2018-12-21T14:37:23.929Z,23.80
2018-12-21T14:42:28.717Z,17.77
2018-12-21T14:47:33.852Z,22.37
2018-12-21T14:52:38.590Z,21.23
2018-12-21T14:57:43.453Z,17.07
2018-12-21T15:02:48.280Z,19.93
2018-12-21T15:07:53.035Z,22.20
2018-12-21T15:12:57.846Z,21.20
2018-12-21T15:18:02.953Z,16.17
2018-12-21T15:23:07.786Z,19.90
2018-12-21T15:28:12.545Z,18.10
2018-12-21T15:33:17.317Z,21.03
2018-12-21T15:38:22.104Z,17.37
2018-12-21T15:43:26.965Z,17.90
2018-12-21T15:48:31.763Z,21.20
2018-12-21T15:53:37.145Z,20.23
2018-12-21T15:58:41.921Z,19.73
2018-12-21T16:03:46.694Z,23.20
2018-12-21T16:08:51.532Z,19.50
2018-12-21T16:13:56.311Z,25.10
2018-12-21T16:19:01.153Z,20.70
2018-12-21T16:24:07.045Z,21.37
2018-12-21T16:29:12.180Z,20.67
2018-12-21T16:34:17.027Z,17.80
2018-12-21T16:39:21.830Z,19.33
2018-12-21T16:44:26.591Z,22.17
2018-12-21T16:49:31.457Z,25.93
2018-12-21T16:54:36.295Z,21.10
2018-12-21T16:59:41.104Z,19.13
2018-12-21T17:04:46.125Z,23.83
2018-12-21T17:09:50.970Z,18.93
2018-12-21T17:14:55.786Z,22.77
2018-12-21T17:20:00.643Z,23.53
2018-12-21T17:25:07.618Z,23.20
2018-12-21T17:30:13.165Z,21.10
2018-12-21T17:35:17.932Z,22.17
2018-12-21T17:40:22.750Z,19.20
2018-12-21T17:45:27.536Z,21.93
2018-12-21T17:50:32.365Z,24.03
2018-12-21T17:55:38.155Z,20.43
2018-12-21T18:00:43.007Z,18.97
2018-12-21T18:05:47.768Z,22.73
2018-12-21T18:10:52.616Z,18.53
2018-12-21T18:15:57.401Z,20.23
2018-12-21T18:21:02.740Z,20.03
2018-12-21T18:26:07.691Z,18.20
2018-12-21T18:31:24.333Z,16.90
2018-12-21T18:36:29.229Z,14.80
2018-12-21T18:41:34.371Z,11.27
2018-12-21T18:46:39.207Z,11.97
2018-12-21T18:51:44.011Z,10.13
2018-12-21T18:56:55.023Z,8.83
2018-12-21T19:01:59.872Z,9.43
2018-12-21T19:07:04.778Z,9.63
2018-12-21T19:12:09.922Z,9.00
2018-12-21T19:17:14.847Z,7.80
2018-12-21T19:22:19.591Z,8.47
2018-12-21T19:27:24.424Z,6.17
2018-12-21T19:32:29.214Z,5.97
2018-12-21T19:37:34.008Z,6.23
2018-12-21T19:42:39.256Z,5.47
2018-12-21T19:47:44.023Z,6.57
2018-12-21T19:52:48.936Z,5.27
2018-12-21T19:57:53.785Z,6.50
2018-12-21T20:02:58.587Z,6.47
2018-12-21T20:08:03.421Z,4.10
2018-12-21T20:13:08.231Z,6.10
2018-12-21T20:18:13.157Z,5.23
2018-12-21T20:23:17.980Z,4.60
2018-12-21T20:28:22.847Z,4.87
2018-12-21T20:33:27.761Z,6.60
2018-12-21T20:38:32.558Z,7.97
2018-12-21T20:43:37.350Z,6.97
2018-12-21T20:48:42.165Z,7.67
2018-12-21T20:53:46.962Z,7.23
2018-12-21T20:58:56.404Z,6.23
2018-12-21T21:04:01.356Z,8.07
2018-12-21T21:09:08.812Z,7.90
2018-12-21T21:14:14.944Z,9.63
2018-12-21T21:19:19.711Z,7.10
2018-12-21T21:24:24.458Z,8.00
2018-12-21T21:29:31.185Z,9.10
2018-12-21T21:34:36.004Z,8.63
2018-12-21T21:39:40.870Z,8.83
2018-12-21T21:44:45.606Z,16.43
2018-12-21T21:49:50.468Z,13.70
2018-12-21T21:54:55.285Z,12.97
2018-12-21T22:00:00.049Z,17.60
2018-12-21T22:05:04.915Z,21.37
2018-12-21T22:10:10.874Z,18.73
2018-12-21T22:15:15.729Z,21.40
2018-12-21T22:20:20.505Z,24.70
2018-12-21T22:25:25.305Z,24.30
2018-12-21T22:30:30.127Z,25.03
2018-12-21T22:35:34.928Z,25.50
2018-12-21T22:40:39.710Z,25.30
2018-12-21T22:45:44.571Z,21.23
2018-12-21T22:50:49.350Z,22.10
2018-12-21T22:55:54.100Z,26.20
2018-12-21T23:00:58.877Z,24.83
2018-12-21T23:06:03.828Z,23.83
2018-12-21T23:11:08.683Z,22.80
2018-12-21T23:16:13.717Z,29.80
2018-12-21T23:21:18.515Z,23.57
2018-12-21T23:26:23.509Z,31.43
2018-12-21T23:31:28.276Z,26.77
2018-12-21T23:36:33.163Z,23.17
2018-12-21T23:41:37.960Z,24.97
2018-12-21T23:46:42.751Z,23.50
2018-12-21T23:51:47.679Z,24.57
2018-12-21T23:56:52.464Z,26.70
